Terminal Aerodrome Forecast
Issued by NWS

Home | Current Version | Previous Version | Text Only | Print | Product List | Glossary On
Versions: 1 2 3 4 5 6 7 8 9 10 11 12
000
FTUS44 KTSA 031120
TAFXNA
TAF
KXNA 031120Z 0312/0412 VRB03KT P6SM FEW120
     FM031500 22009KT P6SM SCT100
     FM040100 VRB04KT P6SM BKN200=

USA.gov is the U.S. government's official web portal to all federal, state and local government web resources and services.